Time;durP1;ratioP1;P1;durP2;ratioP2;P2;SDS_P1;SDS_P2;PMS_P1;PMS_P2;Temp;Humidity;BMP_temperature;BMP_pressure;BME280_temperature;BME280_humidity;BME280_pressure;Samples;Min_cycle;Max_cycle;Signal;HPM_P1;HPM_P2
2022/12/24 00:01:05;;;;;;;27.90;4.07;;;;;;;14.13;62.71;100546.25;4935427;28;125858;-71
2022/12/24 00:03:33;;;;;;;25.52;3.85;;;;;;;14.09;62.56;100550.91;4945893;28;124132;-71
2022/12/24 00:06:12;;;;;;;26.90;4.00;;;;;;;14.06;62.56;100556.41;4930723;28;114990;-71
2022/12/24 00:08:40;;;;;;;21.02;3.92;;;;;;;14.04;62.65;100553.00;4943236;28;114460;-71
2022/12/24 00:11:07;;;;;;;20.00;3.95;;;;;;;14.01;62.66;100559.41;4954655;28;124273;-71
2022/12/24 00:13:36;;;;;;;24.85;3.78;;;;;;;14.01;62.57;100558.50;4939370;28;123792;-71
2022/12/24 00:16:04;;;;;;;22.05;3.53;;;;;;;13.98;62.59;100564.06;4937758;28;114345;-70
2022/12/24 00:18:31;;;;;;;15.73;3.58;;;;;;;13.96;62.65;100565.97;4939206;28;114128;-71
2022/12/24 00:21:00;;;;;;;24.60;4.10;;;;;;;13.94;62.68;100573.19;4937021;28;124073;-71
2022/12/24 00:23:27;;;;;;;23.05;3.97;;;;;;;13.92;62.60;100569.75;4939971;28;123601;-71
2022/12/24 00:25:54;;;;;;;29.67;4.60;;;;;;;13.90;62.69;100576.97;4937578;28;113953;-71
2022/12/24 00:28:21;;;;;;;20.75;3.22;;;;;;;13.89;62.62;100576.13;4937877;28;113978;-71
2022/12/24 00:30:49;;;;;;;25.13;4.20;;;;;;;13.88;62.74;100592.19;4942184;28;124191;-70
2022/12/24 00:33:16;;;;;;;22.00;3.95;;;;;;;13.87;62.72;100588.69;4943926;28;123763;-71
2022/12/24 00:35:52;;;;;;;25.00;3.55;;;;;;;13.87;62.67;100598.50;4941139;28;114263;-71
2022/12/24 00:38:19;;;;;;;26.10;4.15;;;;;;;13.86;62.79;100596.78;4944342;28;113449;-70
2022/12/24 00:40:46;;;;;;;25.73;3.85;;;;;;;13.85;62.74;100603.06;4938273;28;124789;-71
2022/12/24 00:43:13;;;;;;;27.33;3.63;;;;;;;13.85;62.88;100597.72;4938552;28;123963;-71
2022/12/24 00:45:40;;;;;;;26.23;4.43;;;;;;;13.87;62.90;100603.81;4935176;28;113110;-71
2022/12/24 00:48:07;;;;;;;23.33;4.10;;;;;;;13.87;62.95;100603.81;4938997;28;114914;-71
2022/12/24 00:50:34;;;;;;;23.60;4.03;;;;;;;13.86;62.87;100602.94;4939073;28;124647;-71
2022/12/24 00:53:01;;;;;;;22.27;4.10;;;;;;;13.87;62.79;100619.78;4938662;28;125161;-70
2022/12/24 00:55:29;;;;;;;23.98;4.13;;;;;;;13.86;62.99;100615.41;4938840;28;115027;-71
2022/12/24 00:57:56;;;;;;;21.67;4.10;;;;;;;13.87;62.81;100622.44;4952231;28;115483;-71
2022/12/24 01:00:23;;;;;;;23.23;4.90;;;;;;;13.88;62.86;100626.81;4936645;28;124250;-71
2022/12/24 01:02:50;;;;;;;23.40;4.82;;;;;;;13.88;62.80;100624.16;4936566;28;124661;-71
2022/12/24 01:05:19;;;;;;;25.98;4.50;;;;;;;13.88;62.82;100627.69;4934910;28;113985;-71
2022/12/24 01:07:47;;;;;;;27.77;5.05;;;;;;;13.88;62.85;100632.13;4938715;28;113810;-71
2022/12/24 01:10:17;;;;;;;30.50;4.80;;;;;;;13.87;62.82;100641.94;4934699;28;126554;-71
2022/12/24 01:12:45;;;;;;;21.48;4.30;;;;;;;13.88;62.89;100642.78;4944172;28;124254;-71
2022/12/24 01:15:13;;;;;;;31.48;5.38;;;;;;;13.88;62.74;100637.47;4940772;28;114995;-71
2022/12/24 01:17:40;;;;;;;23.95;4.78;;;;;;;13.86;62.83;100647.34;4951577;28;113798;-70
2022/12/24 01:20:12;;;;;;;24.77;4.57;;;;;;;13.86;62.70;100639.38;4935915;28;124362;-71
2022/12/24 01:22:39;;;;;;;24.40;4.47;;;;;;;13.87;62.73;100641.09;4934829;28;123647;-71
2022/12/24 01:25:07;;;;;;;28.67;4.47;;;;;;;13.89;62.64;100652.50;4949581;28;114352;-71
2022/12/24 01:27:34;;;;;;;25.80;4.78;;;;;;;13.86;62.68;100656.19;4942528;28;116190;-71
2022/12/24 01:30:01;;;;;;;23.42;4.47;;;;;;;13.87;62.54;100657.06;4934036;28;123291;-71
2022/12/24 01:32:28;;;;;;;22.40;4.40;;;;;;;13.89;62.53;100660.47;4941634;28;123632;-71
2022/12/24 01:34:55;;;;;;;21.45;4.40;;;;;;;13.90;62.49;100662.19;4949627;28;113817;-71
2022/12/24 01:37:22;;;;;;;27.42;4.95;;;;;;;13.90;62.45;100667.50;4949314;28;114243;-71
2022/12/24 01:39:50;;;;;;;21.90;4.95;;;;;;;13.90;62.56;100667.50;4945269;28;123981;-71
2022/12/24 01:45:45;;;;;;;18.23;4.53;;;;;;;13.90;62.46;100678.16;4945257;28;114923;-71
2022/12/24 01:48:33;;;;;;;22.83;4.68;;;;;;;13.91;62.33;100686.03;4928885;28;114892;-71
2022/12/24 01:51:26;;;;;;;28.70;4.80;;;;;;;13.90;62.34;100683.47;4944261;28;124842;-71
2022/12/24 01:53:58;;;;;;;19.85;4.78;;;;;;;13.89;62.35;100684.44;4945009;28;124919;-71
2022/12/24 01:56:28;;;;;;;27.50;5.90;;;;;;;13.89;62.33;100681.78;4943185;28;113239;-71
2022/12/24 01:59:01;;;;;;;25.45;4.57;;;;;;;13.89;62.05;100684.44;4946987;28;114134;-71
2022/12/24 02:01:29;;;;;;;19.85;4.72;;;;;;;13.89;62.15;100687.09;4945114;28;124846;-70
2022/12/24 02:03:56;;;;;;;24.00;4.60;;;;;;;13.87;62.02;100694.34;4947654;28;124627;-70
2022/12/24 02:06:24;;;;;;;26.08;5.00;;;;;;;13.86;62.26;100688.13;4932386;28;114058;-70
2022/12/24 02:08:51;;;;;;;23.75;4.53;;;;;;;13.86;62.30;100703.25;4946606;28;113650;-70
2022/12/24 02:11:21;;;;;;;28.90;4.93;;;;;;;13.83;62.05;100710.47;4944206;28;124324;-70
2022/12/24 02:13:57;;;;;;;22.83;4.45;;;;;;;13.80;61.75;100715.97;4947026;28;124853;-70
2022/12/24 02:16:57;;;;;;;24.05;4.88;;;;;;;13.76;61.91;100714.47;4949596;28;113999;-70
2022/12/24 02:19:39;;;;;;;28.05;4.93;;;;;;;13.71;62.03;100726.34;4963210;28;113799;-70
2022/12/24 02:22:16;;;;;;;25.27;4.82;;;;;;;13.66;62.12;100723.97;4949353;28;123637;-70
2022/12/24 02:25:01;;;;;;;22.60;4.63;;;;;;;13.65;62.08;100721.38;4947547;28;123831;-70
2022/12/24 02:27:38;;;;;;;22.60;5.30;;;;;;;13.63;62.23;100724.13;4946327;28;114285;-70
2022/12/24 02:30:08;;;;;;;26.33;5.13;;;;;;;13.62;62.22;100727.75;4937266;28;116824;-70
2022/12/24 02:32:47;;;;;;;24.95;5.15;;;;;;;13.61;62.31;100726.88;4941436;28;123679;-70
2022/12/24 02:35:48;;;;;;;20.15;4.88;;;;;;;13.60;62.17;100729.66;4934969;28;124142;-70
2022/12/24 02:38:41;;;;;;;19.75;5.00;;;;;;;13.57;62.34;100724.50;4941287;28;115578;-70
2022/12/24 02:42:04;;;;;;;22.80;4.70;;;;;;;13.55;62.45;100726.41;4941094;28;115318;-71
2022/12/24 02:44:19;;;;;;;24.08;4.95;;;;;;;13.56;62.49;100733.41;4942967;28;124256;-70
2022/12/24 02:46:47;;;;;;;20.90;5.47;;;;;;;13.56;62.62;100733.41;4941184;28;123189;-70
2022/12/24 02:49:14;;;;;;;24.30;4.88;;;;;;;13.56;62.70;100730.75;4942872;28;115276;-70
2022/12/24 02:51:41;;;;;;;28.70;5.80;;;;;;;13.57;62.67;100736.00;4943468;28;114095;-69
2022/12/24 02:54:09;;;;;;;25.27;4.88;;;;;;;13.60;62.63;100729.66;4924826;28;122884;-70
2022/12/24 02:56:55;;;;;;;27.20;5.60;;;;;;;13.61;62.81;100731.34;4943806;28;123750;-70
2022/12/24 02:59:50;;;;;;;24.10;5.20;;;;;;;13.62;62.85;100738.41;4940703;28;113737;-70
2022/12/24 03:02:27;;;;;;;26.38;5.38;;;;;;;13.64;62.93;100731.19;4941106;28;114610;-70
2022/12/24 03:05:12;;;;;;;28.40;5.35;;;;;;;13.65;62.62;100732.88;4936751;28;123896;-70
2022/12/24 03:08:01;;;;;;;29.45;5.57;;;;;;;13.65;62.94;100735.53;4941772;28;123210;-70
2022/12/24 03:10:40;;;;;;;31.08;5.93;;;;;;;13.67;62.86;100736.31;4939214;28;114394;-70
2022/12/24 03:13:16;;;;;;;24.20;5.35;;;;;;;13.68;63.03;100722.06;4940716;28;114652;-70
2022/12/24 03:15:45;;;;;;;29.23;5.70;;;;;;;13.71;62.91;100726.34;4941808;28;124336;-70
2022/12/24 03:18:14;;;;;;;24.73;5.25;;;;;;;13.71;62.97;100729.88;4943994;28;124084;-70
2022/12/24 03:20:52;;;;;;;24.85;5.10;;;;;;;13.72;63.00;100728.91;4939872;28;113033;-70
2022/12/24 03:23:20;;;;;;;28.17;5.13;;;;;;;13.70;63.01;100725.47;4941633;28;113979;-70
2022/12/24 03:25:48;;;;;;;28.15;5.20;;;;;;;13.70;62.70;100736.13;4938082;28;123749;-70
2022/12/24 03:28:17;;;;;;;30.70;5.05;;;;;;;13.67;62.72;100736.31;4943509;28;123929;-70
2022/12/24 03:30:47;;;;;;;31.90;5.05;;;;;;;13.64;62.73;100741.81;4941758;28;114959;-70
2022/12/24 03:33:15;;;;;;;27.10;4.57;;;;;;;13.62;62.84;100733.09;4950816;28;113697;-70
2022/12/24 03:35:43;;;;;;;24.77;4.60;;;;;;;13.60;62.81;100745.63;4949635;28;123048;-70
2022/12/24 03:38:10;;;;;;;27.15;5.00;;;;;;;13.58;62.69;100747.50;4938912;28;124063;-70
2022/12/24 03:40:37;;;;;;;24.60;5.18;;;;;;;13.57;63.08;100751.13;4950440;28;114245;-70
2022/12/24 03:43:04;;;;;;;30.48;4.60;;;;;;;13.58;63.21;100752.81;4931757;28;113929;-70
2022/12/24 03:45:31;;;;;;;24.05;5.10;;;;;;;13.58;63.10;100755.47;4931292;28;124104;-70
2022/12/24 03:47:58;;;;;;;27.60;4.97;;;;;;;13.59;63.19;100755.38;4938658;28;123460;-70
2022/12/24 03:50:25;;;;;;;25.25;4.78;;;;;;;13.61;63.50;100757.97;4934694;28;114191;-70
2022/12/24 03:52:54;;;;;;;29.50;5.40;;;;;;;13.61;63.35;100752.66;4940014;28;113970;-70
2022/12/24 03:55:21;;;;;;;24.35;4.68;;;;;;;13.63;63.38;100753.41;4933714;28;123831;-70
2022/12/24 03:57:49;;;;;;;28.13;4.88;;;;;;;13.65;63.39;100759.50;4936953;28;123747;-70
2022/12/24 04:00:16;;;;;;;26.85;4.82;;;;;;;13.67;63.53;100768.25;4935107;28;114247;-70
2022/12/24 04:02:43;;;;;;;25.73;4.55;;;;;;;13.68;63.46;100764.66;4929973;28;114329;-70
2022/12/24 04:05:16;;;;;;;27.02;4.97;;;;;;;13.69;63.42;100769.00;4932193;28;124083;-70
2022/12/24 04:07:43;;;;;;;29.77;4.95;;;;;;;13.70;63.57;100773.38;4941743;28;124557;-70
2022/12/24 04:10:11;;;;;;;27.65;4.75;;;;;;;13.71;63.38;100775.13;4938447;28;114386;-70
2022/12/24 04:12:39;;;;;;;18.45;4.85;;;;;;;13.72;63.52;100776.81;4947193;28;114268;-70
2022/12/24 04:15:07;;;;;;;26.40;5.10;;;;;;;13.72;63.45;100766.16;4941905;28;124568;-70
2022/12/24 04:17:34;;;;;;;26.45;5.07;;;;;;;13.73;63.48;100775.88;4943019;28;123952;-70
2022/12/24 04:20:01;;;;;;;28.10;5.03;;;;;;;13.75;63.48;100776.66;4932987;28;115824;-70
2022/12/24 04:22:28;;;;;;;28.27;5.28;;;;;;;13.76;63.62;100783.66;4934175;28;114447;-70
2022/12/24 04:24:55;;;;;;;25.48;5.15;;;;;;;13.77;63.56;100781.88;4948559;28;124192;-70
2022/12/24 04:27:22;;;;;;;26.77;5.50;;;;;;;13.81;63.69;100786.06;4947124;28;124234;-70
2022/12/24 04:29:56;;;;;;;27.38;5.65;;;;;;;13.81;63.59;100786.91;4924556;28;114231;-70
2022/12/24 04:32:26;;;;;;;21.90;5.18;;;;;;;13.83;63.67;100784.19;4939791;28;113529;-71
2022/12/24 04:34:53;;;;;;;24.20;5.28;;;;;;;13.84;63.72;100780.53;4959273;28;125387;-70
2022/12/24 04:37:20;;;;;;;30.13;5.78;;;;;;;13.86;63.56;100783.13;4941125;28;124940;-70
2022/12/24 04:39:47;;;;;;;33.83;5.53;;;;;;;13.88;63.41;100786.53;4941898;28;114389;-70
2022/12/24 04:42:14;;;;;;;21.48;5.43;;;;;;;13.88;63.71;100781.22;4941417;28;115445;-70
2022/12/24 04:44:41;;;;;;;23.92;5.55;;;;;;;13.90;63.69;100789.97;4938505;28;124700;-70
2022/12/24 04:47:09;;;;;;;25.38;5.75;;;;;;;13.91;63.58;100792.53;4936042;28;122957;-70
2022/12/24 04:49:36;;;;;;;18.45;5.18;;;;;;;13.93;63.61;100789.78;4940142;28;113742;-71
2022/12/24 04:52:04;;;;;;;26.88;5.20;;;;;;;13.94;63.85;100796.84;4940395;28;114123;-70
2022/12/24 04:54:31;;;;;;;19.92;5.03;;;;;;;13.96;63.77;100805.59;4939652;28;123788;-70
2022/12/24 04:56:58;;;;;;;23.70;5.07;;;;;;;13.97;63.75;100796.66;4939129;28;123744;-71
2022/12/24 04:59:25;;;;;;;19.65;4.65;;;;;;;13.97;63.66;100812.63;4940081;28;114047;-70
2022/12/24 05:01:52;;;;;;;22.67;5.15;;;;;;;13.98;63.52;100809.03;4949929;28;114076;-70
2022/12/24 05:04:19;;;;;;;19.48;5.20;;;;;;;13.98;63.63;100803.69;4949617;28;124605;-70
2022/12/24 05:06:46;;;;;;;24.17;4.97;;;;;;;13.97;63.39;100807.31;4947607;28;124022;-71
2022/12/24 05:09:13;;;;;;;20.30;5.00;;;;;;;13.98;63.69;100814.34;4947979;28;114944;-70
2022/12/24 05:11:40;;;;;;;17.25;4.60;;;;;;;13.96;63.60;100806.44;4935533;28;114449;-70
2022/12/24 05:14:07;;;;;;;16.70;4.70;;;;;;;13.98;63.65;100803.69;4950959;28;124723;-70
2022/12/24 05:16:34;;;;;;;20.35;4.70;;;;;;;13.98;63.63;100811.69;4933488;28;124450;-70
2022/12/24 05:19:02;;;;;;;22.42;5.13;;;;;;;13.97;63.54;100813.47;4934022;28;113869;-70
2022/12/24 05:21:29;;;;;;;20.00;4.43;;;;;;;13.95;63.56;100817.19;4949092;28;113302;-70
2022/12/24 05:26:52;;;;;;;;;;;;;;;13.92;63.57;100814.69;4949228;28;122777;-70
2022/12/24 05:29:20;;;;;;;19.38;4.13;;;;;;;13.90;63.61;100813.94;4949654;28;114592;-70
2022/12/24 05:31:47;;;;;;;22.98;4.72;;;;;;;13.89;63.52;100814.91;4934314;28;114390;-70
2022/12/24 05:34:15;;;;;;;21.60;4.90;;;;;;;13.87;63.61;100811.47;4937854;28;123528;-70
2022/12/24 05:36:43;;;;;;;23.73;5.30;;;;;;;13.87;63.29;100822.97;4933043;28;123301;-70
2022/12/24 05:39:15;;;;;;;20.05;4.78;;;;;;;13.86;63.70;100820.41;4950747;28;114228;-70
2022/12/24 05:41:44;;;;;;;22.13;5.47;;;;;;;13.88;63.74;100818.50;4937473;28;114310;-70
2022/12/24 05:44:11;;;;;;;21.42;4.40;;;;;;;13.88;63.68;100813.16;4948060;28;124323;-70
2022/12/24 05:46:38;;;;;;;18.10;5.38;;;;;;;13.88;63.75;100818.50;4944379;28;124256;-70
2022/12/24 05:49:06;;;;;;;25.92;5.18;;;;;;;13.88;63.85;100818.50;4944737;28;113581;-70
2022/12/24 05:51:33;;;;;;;25.25;5.10;;;;;;;13.88;63.61;100826.47;4941598;28;113939;-70
2022/12/24 05:54:01;;;;;;;22.83;4.57;;;;;;;13.86;63.65;100826.56;4946250;28;124699;-70
2022/12/24 05:56:28;;;;;;;22.63;4.50;;;;;;;13.86;63.70;100820.41;4947626;28;123564;-71
2022/12/24 05:58:55;;;;;;;21.17;4.57;;;;;;;13.83;63.78;100824.94;4944967;28;115245;-70
2022/12/24 06:01:23;;;;;;;20.83;4.40;;;;;;;13.82;63.87;100831.25;4945242;28;115401;-70
2022/12/24 06:03:51;;;;;;;23.35;4.00;;;;;;;13.81;63.63;100837.50;4947554;28;123853;-70
2022/12/24 06:06:23;;;;;;;21.92;4.50;;;;;;;13.80;63.74;100849.09;4948821;28;123933;-70
2022/12/24 06:08:52;;;;;;;24.40;4.43;;;;;;;13.79;63.81;100850.03;4947854;28;112368;-70
2022/12/24 06:11:23;;;;;;;21.70;4.40;;;;;;;13.78;63.88;100850.97;4949017;28;114934;-70
2022/12/24 06:13:51;;;;;;;20.60;4.55;;;;;;;13.78;63.84;100850.97;4944735;28;125121;-70
2022/12/24 06:16:20;;;;;;;31.25;4.50;;;;;;;13.78;63.86;100850.97;4934677;28;122964;-70
2022/12/24 06:18:47;;;;;;;25.75;4.82;;;;;;;13.79;63.88;100857.19;4946184;28;114838;-70
2022/12/24 06:21:15;;;;;;;27.63;5.35;;;;;;;13.79;63.84;100862.50;4946894;28;114205;-70
2022/12/24 06:23:43;;;;;;;26.67;4.78;;;;;;;13.78;63.89;100860.78;4944586;28;124040;-70
2022/12/24 06:26:13;;;;;;;25.27;4.80;;;;;;;13.78;63.90;100856.31;4943027;28;124468;-70
2022/12/24 06:28:40;;;;;;;24.25;4.50;;;;;;;13.78;64.05;100861.63;4935012;28;114725;-70
2022/12/24 06:31:14;;;;;;;24.45;4.50;;;;;;;13.78;63.82;100872.28;4943637;28;114992;-70
2022/12/24 06:33:41;;;;;;;21.13;4.20;;;;;;;13.79;63.75;100878.47;4940863;28;124299;-70
2022/12/24 06:36:12;;;;;;;20.77;4.43;;;;;;;13.78;63.55;100866.09;4942548;28;124316;-70
2022/12/24 06:38:45;;;;;;;19.05;4.30;;;;;;;13.77;63.74;100867.91;4941947;28;113100;-72
2022/12/24 06:41:12;;;;;;;23.52;4.45;;;;;;;13.77;63.67;100881.22;4943068;28;113411;-70
2022/12/24 06:43:43;;;;;;;20.02;4.43;;;;;;;13.76;63.70;100874.16;4942377;28;124741;-69
2022/12/24 06:46:11;;;;;;;19.38;4.55;;;;;;;13.76;63.72;100884.81;4938909;28;124460;-71
2022/12/24 06:48:38;;;;;;;22.63;5.30;;;;;;;13.75;63.66;100893.75;4939800;28;115552;-69
2022/12/24 06:51:05;;;;;;;19.77;4.35;;;;;;;13.75;63.69;100893.75;4939506;28;114597;-69
2022/12/24 06:53:32;;;;;;;21.40;4.60;;;;;;;13.75;63.83;100898.22;4937110;28;123970;-69
2022/12/24 06:56:04;;;;;;;20.77;4.38;;;;;;;13.75;63.93;100893.75;4939172;28;123521;-69
2022/12/24 06:58:32;;;;;;;24.30;4.75;;;;;;;13.75;63.91;100892.88;4939341;28;114264;-70
2022/12/24 07:01:01;;;;;;;21.23;4.20;;;;;;;13.76;63.86;100895.47;4943061;28;114426;-69
2022/12/24 07:03:30;;;;;;;22.65;4.53;;;;;;;13.76;63.85;100895.47;4956652;28;124105;-70
2022/12/24 07:05:58;;;;;;;25.05;4.32;;;;;;;13.77;63.82;100881.22;4946109;28;123287;-70
2022/12/24 07:08:25;;;;;;;17.00;4.20;;;;;;;13.76;63.76;100887.47;4937822;28;113135;-69
2022/12/24 07:10:52;;;;;;;22.23;5.03;;;;;;;13.76;63.77;100900.78;4947863;28;113618;-70
2022/12/24 07:13:21;;;;;;;20.20;4.53;;;;;;;13.77;63.63;100907.00;4945393;28;123883;-70
2022/12/24 07:15:56;;;;;;;22.98;4.95;;;;;;;13.76;63.70;100900.78;4948538;28;123908;-70
2022/12/24 07:18:23;;;;;;;21.20;4.88;;;;;;;13.77;63.55;100902.53;4948599;28;114212;-70
2022/12/24 07:20:50;;;;;;;18.17;5.20;;;;;;;13.78;63.42;100903.38;4944557;28;114224;-69
2022/12/24 07:23:17;;;;;;;19.75;4.40;;;;;;;13.76;63.30;100911.44;4943813;28;122915;-70
2022/12/24 07:25:44;;;;;;;21.45;4.50;;;;;;;13.74;63.39;100913.34;4948159;28;125077;-70
2022/12/24 07:28:12;;;;;;;25.60;5.15;;;;;;;13.72;63.30;100920.56;4947641;28;114214;-70
2022/12/24 07:30:39;;;;;;;22.05;4.82;;;;;;;13.71;63.40;100916.19;4945484;28;113087;-69
2022/12/24 07:33:07;;;;;;;18.30;4.82;;;;;;;13.70;63.39;100916.28;4945295;28;123539;-70
2022/12/24 07:35:34;;;;;;;22.45;4.63;;;;;;;13.70;63.28;100917.13;4934861;28;123621;-70
2022/12/24 07:38:01;;;;;;;19.73;4.30;;;;;;;13.68;63.35;100929.66;4945178;28;115161;-70
2022/12/24 07:40:28;;;;;;;23.95;4.72;;;;;;;13.67;63.28;100937.72;4945542;28;114749;-70
2022/12/24 07:42:56;;;;;;;21.92;4.60;;;;;;;13.65;63.21;100943.13;4945965;28;123527;-70
2022/12/24 07:45:23;;;;;;;24.50;4.80;;;;;;;13.63;63.08;100955.66;4945948;28;123608;-70
2022/12/24 07:47:50;;;;;;;17.63;4.65;;;;;;;13.60;63.05;100953.19;4945429;28;114031;-70
2022/12/24 07:50:17;;;;;;;18.70;4.05;;;;;;;13.58;63.20;100961.25;4938676;28;113040;-70
2022/12/24 07:52:44;;;;;;;21.85;4.30;;;;;;;13.58;63.16;100971.03;4948560;28;124942;-69
2022/12/24 07:55:11;;;;;;;22.48;4.63;;;;;;;13.57;63.15;100972.00;4946113;28;124428;-70
2022/12/24 07:57:38;;;;;;;25.05;5.22;;;;;;;13.59;63.31;100967.44;4952900;28;114597;-70
2022/12/24 08:00:06;;;;;;;24.15;5.25;;;;;;;13.58;63.21;100976.34;4956135;28;113222;-70
2022/12/24 08:02:38;;;;;;;18.95;4.38;;;;;;;13.58;63.25;100987.00;4946253;28;125073;-69
2022/12/24 08:05:06;;;;;;;21.45;5.00;;;;;;;13.57;63.14;100991.47;4948225;28;124042;-69
2022/12/24 08:07:33;;;;;;;23.67;4.57;;;;;;;13.57;62.96;101001.25;4931235;28;113897;-70
2022/12/24 08:10:00;;;;;;;30.02;4.85;;;;;;;13.54;63.09;101012.94;4966670;28;113066;-70
2022/12/24 08:12:27;;;;;;;17.10;4.38;;;;;;;13.54;63.20;101012.06;4932426;28;124227;-70
2022/12/24 08:14:54;;;;;;;20.90;4.80;;;;;;;13.54;63.09;101022.69;4932600;28;124182;-70
2022/12/24 08:17:21;;;;;;;27.10;4.97;;;;;;;13.53;63.23;101021.00;4945645;28;114492;-69
2022/12/24 08:19:56;;;;;;;22.75;4.80;;;;;;;13.54;63.16;101028.03;4947933;28;114245;-70
2022/12/24 08:22:23;;;;;;;24.17;4.65;;;;;;;13.54;63.27;101025.38;4939387;28;124023;-70
2022/12/24 08:24:50;;;;;;;22.08;4.50;;;;;;;13.56;63.23;101031.47;4943872;28;123060;-70
2022/12/24 08:27:17;;;;;;;19.02;4.45;;;;;;;13.55;63.12;101040.41;4947157;28;115338;-70
2022/12/24 08:29:44;;;;;;;24.15;4.75;;;;;;;13.55;63.30;101040.41;4936054;28;114147;-69
2022/12/24 08:32:12;;;;;;;26.10;4.93;;;;;;;13.55;63.29;101043.06;4944648;28;123861;-69
2022/12/24 08:34:39;;;;;;;23.13;4.68;;;;;;;13.56;63.22;101047.44;4947218;28;123571;-70
2022/12/24 08:37:06;;;;;;;25.48;4.65;;;;;;;13.56;63.31;101047.44;4947117;28;113398;-69
2022/12/24 08:39:33;;;;;;;27.13;5.55;;;;;;;13.56;63.30;101052.75;4942484;28;114487;-70
2022/12/24 08:42:00;;;;;;;26.95;5.82;;;;;;;13.56;63.33;101052.75;4945302;28;124653;-70
2022/12/24 08:44:27;;;;;;;25.35;4.68;;;;;;;13.57;63.28;101051.81;4943721;28;124772;-70
2022/12/24 08:46:54;;;;;;;27.33;5.65;;;;;;;13.57;63.38;101049.16;4942914;28;114545;-70
2022/12/24 08:49:22;;;;;;;19.55;4.22;;;;;;;13.56;63.36;101042.09;4946294;28;115003;-70
2022/12/24 08:51:50;;;;;;;20.83;4.88;;;;;;;13.56;63.28;101042.09;4941836;28;124705;-69
2022/12/24 08:54:17;;;;;;;22.10;4.68;;;;;;;13.57;63.64;101049.16;4941544;28;123294;-70
2022/12/24 08:56:44;;;;;;;22.48;4.75;;;;;;;13.57;63.30;101050.00;4941675;28;114281;-70
2022/12/24 08:59:11;;;;;;;25.27;4.05;;;;;;;13.58;63.20;101056.19;4939651;28;113981;-70
2022/12/24 09:01:38;;;;;;;24.20;4.85;;;;;;;13.57;63.40;101065.13;4940021;28;123819;-70
2022/12/24 09:04:06;;;;;;;20.08;3.88;;;;;;;13.57;63.52;101065.97;4936058;28;125497;-70
2022/12/24 09:06:33;;;;;;;23.15;4.13;;;;;;;13.59;63.57;101063.25;4938491;28;114294;-70
2022/12/24 09:09:01;;;;;;;24.92;4.55;;;;;;;13.60;63.54;101070.28;4936475;28;114849;-70
2022/12/24 09:11:29;;;;;;;21.17;4.53;;;;;;;13.62;63.50;101079.06;4942536;28;123032;-70
2022/12/24 09:13:56;;;;;;;25.17;4.85;;;;;;;13.63;63.59;101075.44;4937260;28;123898;-70
2022/12/24 09:16:23;;;;;;;21.27;4.97;;;;;;;13.64;63.59;101087.81;4937542;28;115087;-69
2022/12/24 09:18:50;;;;;;;21.15;4.18;;;;;;;13.66;63.49;101085.94;4938648;28;115076;-70
2022/12/24 09:21:17;;;;;;;26.95;5.47;;;;;;;13.68;63.66;101094.69;4938372;28;124095;-70
2022/12/24 09:23:46;;;;;;;22.40;4.68;;;;;;;13.71;63.67;101098.97;4933860;28;123929;-69
2022/12/24 09:26:20;;;;;;;26.40;4.80;;;;;;;13.75;63.74;101106.72;4940598;28;113782;-69
2022/12/24 09:28:47;;;;;;;21.80;4.30;;;;;;;13.79;63.92;101102.94;4943422;28;113059;-70
2022/12/24 09:31:15;;;;;;;16.23;4.00;;;;;;;13.83;63.63;101115.13;4938633;28;124651;-70
2022/12/24 09:33:44;;;;;;;24.58;4.70;;;;;;;13.88;63.68;101122.00;4937819;28;123863;-69
2022/12/24 09:36:11;;;;;;;27.65;4.82;;;;;;;13.92;63.66;101118.22;4943552;28;114273;-70
2022/12/24 09:38:41;;;;;;;31.80;5.03;;;;;;;13.94;63.56;101121.69;4936010;28;114301;-69
2022/12/24 09:41:37;;;;;;;21.67;4.50;;;;;;;13.95;63.50;101123.41;4944612;28;122799;-70
2022/12/24 09:44:20;;;;;;;19.15;4.60;;;;;;;13.96;63.57;101133.97;4934980;28;123341;-70
2022/12/24 09:46:49;;;;;;;24.85;4.75;;;;;;;13.98;63.49;101133.91;4953196;28;113822;-70
2022/12/24 09:49:22;;;;;;;20.35;4.70;;;;;;;13.99;63.45;101135.59;4937733;28;113780;-70
2022/12/24 09:52:01;;;;;;;22.63;5.35;;;;;;;14.00;63.52;101140.00;4936245;28;123597;-70
2022/12/24 09:54:37;;;;;;;21.25;4.75;;;;;;;14.03;63.42;101142.47;4941177;28;123414;-69
2022/12/24 09:57:12;;;;;;;21.52;5.95;;;;;;;14.06;63.39;101142.31;4954111;28;115312;-70
2022/12/24 09:59:45;;;;;;;;;;;;;;;14.07;63.67;101144.06;4938026;28;114712;-69
2022/12/24 10:02:15;;;;;;;23.55;4.80;;;;;;;14.12;63.59;101141.97;4936571;28;124920;-70
2022/12/24 10:04:45;;;;;;;27.23;4.75;;;;;;;14.14;63.63;101145.41;4940305;28;123311;-69
2022/12/24 10:07:21;;;;;;;21.48;4.82;;;;;;;14.16;63.58;101143.50;4937262;28;115921;-70
2022/12/24 10:10:02;;;;;;;26.83;5.40;;;;;;;14.23;63.64;101164.50;4953519;28;114072;-70
2022/12/24 10:12:50;;;;;;;22.67;5.35;;;;;;;14.25;63.64;101167.94;4937091;28;124713;-69
2022/12/24 10:15:31;;;;;;;22.25;5.00;;;;;;;14.31;63.56;101167.59;4947352;28;123853;-70
2022/12/24 10:18:29;;;;;;;21.63;5.65;;;;;;;14.34;63.61;101164.78;4940409;28;114112;-70
2022/12/24 10:21:10;;;;;;;19.77;4.65;;;;;;;14.38;63.38;101163.66;4925510;28;112362;-69
2022/12/24 10:23:47;;;;;;;20.58;5.43;;;;;;;14.41;63.27;101179.47;4942343;28;123890;-69
2022/12/24 10:26:27;;;;;;;26.55;5.30;;;;;;;14.43;63.38;101166.94;4946679;28;123999;-70
2022/12/24 10:29:17;;;;;;;32.75;6.93;;;;;;;14.48;63.44;101170.19;4948431;28;114761;-70
2022/12/24 10:32:08;;;;;;;25.00;5.30;;;;;;;14.52;63.36;101155.75;4941673;28;114436;-70
2022/12/24 10:34:48;;;;;;;22.88;5.40;;;;;;;14.56;63.26;101162.63;4943759;28;124085;-69
2022/12/24 10:37:21;;;;;;;23.63;5.28;;;;;;;14.60;63.23;101158.88;4943594;28;123616;-69
2022/12/24 10:39:49;;;;;;;28.48;6.60;;;;;;;14.65;63.00;101152.41;4942509;28;114113;-69
2022/12/24 10:42:17;;;;;;;26.83;6.35;;;;;;;14.68;62.96;101152.25;4939737;28;113788;-69
2022/12/24 10:44:51;;;;;;;20.42;5.03;;;;;;;14.70;62.88;101150.34;4938011;28;124335;-70
2022/12/24 10:47:20;;;;;;;23.73;6.30;;;;;;;14.72;62.78;101151.13;4939881;28;125389;-70
2022/12/24 10:49:57;;;;;;;26.77;5.78;;;;;;;14.74;62.88;101157.22;4944574;28;112810;-70
2022/12/24 10:52:29;;;;;;;20.13;5.63;;;;;;;14.74;62.66;101154.56;4934447;28;113132;-69
2022/12/24 10:55:10;;;;;;;23.77;5.20;;;;;;;14.73;62.58;101164.38;4935771;28;123849;-69
2022/12/24 10:57:39;;;;;;;24.70;5.35;;;;;;;14.74;62.58;101170.53;4943182;28;123673;-70
2022/12/24 11:00:18;;;;;;;20.38;4.70;;;;;;;14.72;62.47;101162.63;4941569;28;115490;-69
2022/12/24 11:02:47;;;;;;;24.13;5.70;;;;;;;14.73;62.49;101163.47;4943834;28;114855;-69
2022/12/24 11:05:34;;;;;;;26.65;6.65;;;;;;;14.73;62.54;101171.47;4937566;28;123663;-69
2022/12/24 11:08:13;;;;;;;22.98;5.28;;;;;;;14.74;62.55;101166.06;4940863;28;124515;-69
2022/12/24 11:10:44;;;;;;;27.17;6.13;;;;;;;14.77;62.58;101167.72;4941311;28;114247;-69
2022/12/24 11:13:43;;;;;;;24.92;5.78;;;;;;;14.79;62.59;101157.81;4941133;28;113678;-69
2022/12/24 11:16:17;;;;;;;31.42;6.70;;;;;;;14.83;62.67;101170.03;4934156;28;123437;-69
2022/12/24 11:18:53;;;;;;;27.90;5.53;;;;;;;14.86;62.44;101158.31;4945745;28;123907;-70
2022/12/24 11:21:28;;;;;;;25.70;5.90;;;;;;;14.87;62.30;101166.22;4938507;28;114511;-69
2022/12/24 11:23:59;;;;;;;19.95;5.30;;;;;;;14.90;62.29;101174.06;4944833;28;113546;-69
2022/12/24 11:26:29;;;;;;;19.40;5.43;;;;;;;14.93;62.22;101171.19;4944897;28;123814;-69
2022/12/24 11:29:13;;;;;;;25.10;5.68;;;;;;;14.95;62.26;101163.97;4948135;28;124039;-70
2022/12/24 11:31:42;;;;;;;19.67;5.38;;;;;;;14.98;62.11;101162.94;4943541;28;114810;-69